Time;durP1;ratioP1;P1;durP2;ratioP2;P2;SDS_P1;SDS_P2;PMS_P1;PMS_P2;Temp;Humidity;BMP_temperature;BMP_pressure;BME280_temperature;BME280_humidity;BME280_pressure;Samples;Min_cycle;Max_cycle;Signal;HPM_P1;HPM_P2
2022/03/20 00:00:50;;;;;;;30.80;17.33;;;5.60;99.90;;;;;;5070651;28;20257;-78
2022/03/20 00:03:15;;;;;;;28.30;17.07;;;5.60;99.90;;;;;;5071321;28;20176;-78
2022/03/20 00:05:42;;;;;;;30.90;17.77;;;5.50;99.90;;;;;;5069316;28;20216;-79
2022/03/20 00:08:09;;;;;;;32.70;18.57;;;5.50;99.90;;;;;;5068779;28;20263;-79
2022/03/20 00:10:39;;;;;;;33.23;18.07;;;5.50;99.90;;;;;;5070795;28;20764;-78
2022/03/20 00:13:11;;;;;;;32.27;18.20;;;5.40;99.90;;;;;;5069167;28;20202;-78
2022/03/20 00:15:42;;;;;;;27.23;17.07;;;5.40;99.90;;;;;;5070536;28;22446;-78
2022/03/20 00:18:09;;;;;;;30.23;17.10;;;5.40;99.90;;;;;;5070512;28;20195;-77
2022/03/20 00:20:39;;;;;;;30.37;18.77;;;5.40;99.90;;;;;;5071174;28;20243;-78
2022/03/20 00:23:07;;;;;;;31.53;17.33;;;5.40;99.90;;;;;;5070282;28;20204;-78
2022/03/20 00:25:42;;;;;;;30.13;16.27;;;5.40;99.90;;;;;;5053821;28;20579;-78
2022/03/20 00:28:08;;;;;;;30.13;17.33;;;5.40;99.90;;;;;;5053571;28;20213;-77
2022/03/20 00:30:34;;;;;;;35.40;18.57;;;5.40;99.90;;;;;;5053947;28;20175;-78
2022/03/20 00:33:00;;;;;;;29.73;17.70;;;5.40;99.90;;;;;;5053536;28;20673;-78
2022/03/20 00:35:25;;;;;;;30.63;17.93;;;5.40;99.90;;;;;;5052690;28;20205;-79
2022/03/20 00:37:51;;;;;;;31.13;17.10;;;5.40;99.90;;;;;;5053550;28;20633;-78
2022/03/20 00:40:17;;;;;;;33.10;16.60;;;5.40;99.90;;;;;;5052394;28;20286;-78
2022/03/20 00:42:42;;;;;;;26.60;16.33;;;5.40;99.90;;;;;;5053847;28;20216;-79
2022/03/20 00:45:08;;;;;;;32.10;18.33;;;5.40;99.90;;;;;;5060783;28;20306;-77
2022/03/20 00:47:34;;;;;;;29.63;17.27;;;5.40;99.90;;;;;;5073783;28;20211;-78
2022/03/20 00:49:59;;;;;;;33.83;17.97;;;5.40;99.90;;;;;;5073271;28;20221;-78
2022/03/20 00:52:25;;;;;;;33.50;17.23;;;5.30;99.90;;;;;;5072177;28;20284;-79
2022/03/20 00:54:50;;;;;;;31.80;18.27;;;5.30;99.90;;;;;;5056334;28;20202;-79
2022/03/20 00:57:16;;;;;;;29.83;16.90;;;5.30;99.90;;;;;;5054575;28;20301;-78
2022/03/20 00:59:42;;;;;;;28.83;17.10;;;5.30;99.90;;;;;;5052964;28;20211;-78
2022/03/20 01:02:11;;;;;;;36.40;16.77;;;5.30;99.90;;;;;;5053654;28;20611;-78
2022/03/20 01:04:38;;;;;;;33.60;17.70;;;5.20;99.90;;;;;;5052167;28;20294;-78
2022/03/20 01:07:04;;;;;;;24.73;16.30;;;5.20;99.90;;;;;;5053627;28;20210;-78
2022/03/20 01:09:31;;;;;;;29.73;17.20;;;5.20;99.90;;;;;;5052647;28;20278;-79
2022/03/20 01:11:57;;;;;;;28.73;16.57;;;5.20;99.90;;;;;;5073826;28;20220;-79
2022/03/20 01:14:24;;;;;;;30.27;16.60;;;5.20;99.90;;;;;;5073470;28;20210;-79
2022/03/20 01:16:51;;;;;;;26.97;16.30;;;5.20;99.90;;;;;;5072160;28;20205;-78
2022/03/20 01:19:16;;;;;;;29.70;15.87;;;5.20;99.90;;;;;;5071331;28;20212;-79
2022/03/20 01:21:42;;;;;;;28.87;16.57;;;5.20;99.90;;;;;;5072983;28;20261;-79
2022/03/20 01:24:08;;;;;;;28.00;16.17;;;5.20;99.90;;;;;;5061950;28;20211;-78
2022/03/20 01:26:35;;;;;;;31.20;17.57;;;5.10;99.90;;;;;;5051643;28;20202;-78
2022/03/20 01:29:01;;;;;;;34.43;16.70;;;5.10;99.90;;;;;;5079603;22;20240;-70
2022/03/20 01:31:28;;;;;;;28.70;15.73;;;5.10;99.90;;;;;;5072068;28;20685;-70
2022/03/20 01:33:54;;;;;;;30.40;16.67;;;5.10;99.90;;;;;;5072934;28;20214;-70
2022/03/20 01:36:20;;;;;;;29.30;15.47;;;5.10;99.90;;;;;;5072638;28;20178;-70
2022/03/20 01:38:46;;;;;;;26.60;15.67;;;5.10;99.90;;;;;;5072225;28;20579;-70
2022/03/20 01:41:12;;;;;;;27.27;15.87;;;5.00;99.90;;;;;;5071331;28;20232;-70
2022/03/20 01:43:38;;;;;;;29.93;16.67;;;5.00;99.90;;;;;;5071011;28;20213;-70
2022/03/20 01:46:04;;;;;;;30.63;16.50;;;5.00;99.90;;;;;;5071096;28;20212;-70
2022/03/20 01:48:29;;;;;;;28.67;16.67;;;5.00;99.90;;;;;;5071654;28;20177;-70
2022/03/20 01:50:55;;;;;;;26.17;15.67;;;5.00;99.90;;;;;;5072822;28;20170;-70
2022/03/20 01:53:20;;;;;;;25.23;15.70;;;5.00;99.90;;;;;;5065896;28;20209;-70
2022/03/20 01:55:46;;;;;;;28.87;15.40;;;4.90;99.90;;;;;;5050685;28;20234;-70
2022/03/20 01:58:14;;;;;;;35.20;16.17;;;5.00;99.90;;;;;;5050321;28;20247;-70
2022/03/20 02:00:40;;;;;;;25.80;15.93;;;4.90;99.90;;;;;;5051976;28;20226;-70
2022/03/20 02:03:06;;;;;;;26.23;16.50;;;4.90;99.90;;;;;;5051105;28;20180;-70
2022/03/20 02:05:31;;;;;;;32.40;15.73;;;4.80;99.90;;;;;;5051898;28;20282;-70
2022/03/20 02:07:57;;;;;;;32.40;16.63;;;4.80;99.90;;;;;;5051368;28;20732;-70
2022/03/20 02:10:23;;;;;;;27.27;17.07;;;4.80;99.90;;;;;;5050707;28;20214;-70
2022/03/20 02:12:48;;;;;;;25.43;14.37;;;4.80;99.90;;;;;;5051890;28;20256;-70
2022/03/20 02:15:15;;;;;;;27.77;16.07;;;4.80;99.90;;;;;;5052348;28;20227;-70
2022/03/20 02:17:41;;;;;;;27.37;16.40;;;4.70;99.90;;;;;;5053446;28;20960;-70
2022/03/20 02:20:08;;;;;;;29.33;15.67;;;4.70;99.90;;;;;;5051452;28;20338;-70
2022/03/20 02:22:42;;;;;;;26.40;16.80;;;4.60;99.90;;;;;;5050967;28;20256;-70
2022/03/20 02:25:10;;;;;;;25.47;16.60;;;4.60;99.90;;;;;;5050652;28;20218;-70
2022/03/20 02:27:39;;;;;;;29.73;15.70;;;4.50;99.90;;;;;;5050404;28;20180;-70
2022/03/20 02:30:12;;;;;;;31.07;17.07;;;4.50;99.90;;;;;;5057693;28;20219;-70
2022/03/20 02:32:40;;;;;;;30.17;16.17;;;4.50;99.90;;;;;;5071381;28;20284;-70
2022/03/20 02:35:07;;;;;;;27.33;15.23;;;4.40;99.90;;;;;;5076815;28;20211;-70
2022/03/20 02:37:34;;;;;;;30.07;16.27;;;4.40;99.90;;;;;;5074170;28;20211;-70
2022/03/20 02:40:03;;;;;;;35.07;17.47;;;4.40;99.90;;;;;;5071001;28;20208;-70
2022/03/20 02:42:29;;;;;;;32.23;17.77;;;4.40;99.90;;;;;;5071255;28;20163;-70
2022/03/20 02:45:10;;;;;;;26.77;15.83;;;4.30;99.90;;;;;;5071969;28;20208;-70
2022/03/20 02:47:39;;;;;;;28.70;16.07;;;4.40;99.90;;;;;;5070365;28;20196;-70
2022/03/20 02:50:11;;;;;;;29.57;16.03;;;4.30;99.90;;;;;;5069191;28;20314;-70
2022/03/20 02:52:47;;;;;;;28.30;15.80;;;4.30;99.90;;;;;;5052587;28;20197;-70
2022/03/20 02:55:15;;;;;;;28.53;16.70;;;4.30;99.90;;;;;;5046898;28;20229;-70
2022/03/20 02:57:41;;;;;;;32.73;16.80;;;4.40;99.90;;;;;;5050830;28;20208;-71
2022/03/20 03:00:08;;;;;;;29.97;17.53;;;4.30;99.90;;;;;;5051449;28;20246;-70
2022/03/20 03:02:37;;;;;;;27.50;16.47;;;4.30;99.90;;;;;;5049633;28;20233;-71
2022/03/20 03:05:03;;;;;;;27.07;15.87;;;4.30;99.90;;;;;;5051113;28;20742;-71
2022/03/20 03:07:30;;;;;;;31.80;17.33;;;4.30;99.90;;;;;;5051060;28;20291;-71
2022/03/20 03:12:40;;;;;;;30.80;17.50;;;4.30;99.90;;;;;;5050736;28;20314;-71
2022/03/20 03:15:19;;;;;;;30.70;16.27;;;4.30;99.90;;;;;;5051795;28;20531;-71
2022/03/20 03:17:45;;;;;;;32.33;16.20;;;4.30;99.90;;;;;;5051076;28;20213;-70
2022/03/20 03:20:10;;;;;;;30.60;17.13;;;4.30;99.90;;;;;;5050833;28;20599;-71
2022/03/20 03:22:36;;;;;;;29.63;16.07;;;4.20;99.90;;;;;;5051207;28;20216;-70
2022/03/20 03:25:02;;;;;;;27.33;16.87;;;4.30;99.90;;;;;;5049799;28;20222;-70
2022/03/20 03:27:27;;;;;;;26.10;15.90;;;4.20;99.90;;;;;;5050440;28;20187;-70
2022/03/20 03:29:53;;;;;;;27.63;16.03;;;4.20;99.90;;;;;;5048836;28;20213;-70
2022/03/20 03:32:19;;;;;;;27.30;16.13;;;4.20;99.90;;;;;;5047649;28;20594;-70
2022/03/20 03:37:32;;;;;;;31.57;18.27;;;4.10;99.90;;;;;;5050315;28;20277;-70
2022/03/20 03:39:59;;;;;;;28.97;15.77;;;4.10;99.90;;;;;;5048047;28;20712;-70
2022/03/20 03:42:24;;;;;;;27.67;16.13;;;4.10;99.90;;;;;;5050047;28;20545;-71
2022/03/20 03:44:51;;;;;;;32.03;17.07;;;4.10;99.90;;;;;;5050949;28;20195;-70
2022/03/20 03:47:17;;;;;;;29.33;16.13;;;4.10;99.90;;;;;;5050340;28;20240;-70
2022/03/20 03:49:42;;;;;;;29.77;15.70;;;4.10;99.90;;;;;;5049307;28;20213;-70
2022/03/20 03:52:08;;;;;;;30.23;16.87;;;4.00;99.90;;;;;;5050448;28;20207;-70
2022/03/20 03:54:33;;;;;;;26.27;15.73;;;4.00;99.90;;;;;;5050660;28;20176;-70
2022/03/20 03:56:59;;;;;;;26.10;16.43;;;4.00;99.90;;;;;;5053305;28;20643;-70
2022/03/20 03:59:24;;;;;;;29.67;16.47;;;4.00;99.90;;;;;;5053194;28;20211;-70
2022/03/20 04:01:50;;;;;;;27.47;15.63;;;3.90;99.90;;;;;;5054111;28;20216;-70
2022/03/20 04:04:15;;;;;;;31.60;15.27;;;3.90;99.90;;;;;;5063206;28;20215;-69
2022/03/20 04:06:42;;;;;;;32.20;17.37;;;3.90;99.90;;;;;;5054626;28;20575;-70
2022/03/20 04:09:07;;;;;;;28.77;16.00;;;3.90;99.90;;;;;;5053875;28;20200;-70
2022/03/20 04:11:33;;;;;;;28.43;16.77;;;3.90;99.90;;;;;;5053729;28;20252;-70
2022/03/20 04:13:58;;;;;;;30.33;16.83;;;3.80;99.90;;;;;;5052620;28;20211;-70
2022/03/20 04:16:24;;;;;;;28.73;16.47;;;3.80;99.90;;;;;;5053967;28;20218;-70
2022/03/20 04:18:50;;;;;;;27.23;15.97;;;3.80;99.90;;;;;;5053261;28;20360;-70
2022/03/20 04:21:16;;;;;;;31.60;17.13;;;3.80;99.90;;;;;;5054375;28;20180;-70
2022/03/20 04:23:43;;;;;;;32.10;16.17;;;3.80;99.90;;;;;;5053743;28;20671;-70
2022/03/20 04:26:09;;;;;;;27.00;15.83;;;3.70;99.90;;;;;;5053675;28;20206;-69
2022/03/20 04:28:35;;;;;;;28.83;16.13;;;3.70;99.90;;;;;;5052694;28;20338;-70
2022/03/20 04:31:00;;;;;;;29.97;16.47;;;3.70;99.90;;;;;;5052370;28;20687;-69
2022/03/20 04:33:27;;;;;;;28.43;16.47;;;3.70;99.90;;;;;;5055941;28;20292;-69
2022/03/20 04:35:52;;;;;;;28.23;16.23;;;3.70;99.90;;;;;;5060285;28;20651;-70
2022/03/20 04:38:21;;;;;;;30.23;16.70;;;3.60;99.90;;;;;;5052753;28;20249;-70
2022/03/20 04:40:47;;;;;;;29.33;16.67;;;3.60;99.90;;;;;;5053419;28;20208;-69
2022/03/20 04:43:13;;;;;;;30.10;16.70;;;3.60;99.90;;;;;;5051985;28;20210;-69
2022/03/20 04:45:38;;;;;;;30.53;16.73;;;3.60;99.90;;;;;;5053063;28;20225;-70
2022/03/20 04:59:01;;;;;;;27.73;16.53;;;3.50;99.90;;;;;;5054478;28;20230;-69
2022/03/20 05:01:26;;;;;;;28.03;16.50;;;3.40;99.90;;;;;;5052853;28;20199;-69
2022/03/20 05:03:52;;;;;;;34.63;16.90;;;3.40;99.90;;;;;;5058901;28;20217;-69
2022/03/20 05:06:17;;;;;;;28.03;16.57;;;3.30;99.90;;;;;;5055376;28;20175;-69
2022/03/20 05:08:43;;;;;;;34.70;17.17;;;3.30;99.90;;;;;;5052356;28;20682;-69
2022/03/20 05:13:53;;;;;;;31.00;17.37;;;3.20;99.90;;;;;;5053936;28;20229;-71
2022/03/20 05:16:18;;;;;;;32.50;18.60;;;3.20;99.90;;;;;;5052641;28;20871;-69
2022/03/20 05:18:44;;;;;;;33.57;17.47;;;3.20;99.90;;;;;;5052201;28;20215;-69
2022/03/20 05:21:10;;;;;;;33.07;17.20;;;3.10;99.90;;;;;;5051889;28;20172;-69
2022/03/20 05:23:36;;;;;;;33.10;17.90;;;3.10;99.90;;;;;;5052410;28;20204;-69
2022/03/20 05:26:02;;;;;;;31.57;16.27;;;3.10;99.90;;;;;;5052506;28;20207;-69
2022/03/20 05:28:27;;;;;;;32.60;17.63;;;3.10;99.90;;;;;;5051487;28;20207;-69
2022/03/20 05:30:54;;;;;;;29.60;15.70;;;3.10;99.90;;;;;;5052267;28;20251;-69
2022/03/20 05:33:19;;;;;;;35.03;16.57;;;3.10;99.90;;;;;;5050509;28;20181;-69
2022/03/20 05:35:45;;;;;;;30.83;17.23;;;3.10;99.90;;;;;;5060776;28;20196;-69
2022/03/20 05:38:11;;;;;;;38.43;18.97;;;3.10;99.90;;;;;;5052213;28;20207;-69
2022/03/20 05:40:39;;;;;;;30.20;17.40;;;3.10;99.90;;;;;;5052783;28;20707;-69
2022/03/20 05:43:08;;;;;;;34.27;17.90;;;3.00;99.90;;;;;;5052624;28;20241;-69
2022/03/20 05:45:34;;;;;;;37.77;18.67;;;3.10;99.90;;;;;;5052304;28;20198;-70
2022/03/20 05:47:59;;;;;;;32.07;17.93;;;3.10;99.90;;;;;;5052206;28;20180;-69
2022/03/20 05:50:25;;;;;;;31.73;16.57;;;3.20;99.90;;;;;;5048834;28;20660;-69
2022/03/20 05:52:52;;;;;;;38.17;19.20;;;3.20;99.90;;;;;;5051126;28;20217;-69
2022/03/20 05:55:18;;;;;;;33.00;18.27;;;3.20;99.90;;;;;;5053489;28;20234;-70
2022/03/20 05:58:02;;;;;;;32.07;17.80;;;3.20;99.90;;;;;;5051068;28;20231;-70
2022/03/20 06:00:28;;;;;;;34.17;17.37;;;3.40;99.90;;;;;;5052191;28;20294;-70
2022/03/20 06:02:54;;;;;;;29.53;17.13;;;3.40;99.90;;;;;;5052479;28;20191;-70
2022/03/20 06:05:20;;;;;;;29.87;17.43;;;3.60;99.90;;;;;;5052001;28;20218;-70
2022/03/20 06:07:47;;;;;;;34.23;17.00;;;4.80;99.90;;;;;;5051735;28;20212;-70
2022/03/20 06:10:18;;;;;;;33.50;17.60;;;6.50;99.90;;;;;;5051815;28;20253;-70
2022/03/20 06:12:44;;;;;;;32.47;17.17;;;6.80;99.90;;;;;;5051698;28;20223;-70
2022/03/20 06:15:10;;;;;;;30.47;17.60;;;7.90;99.90;;;;;;5052639;28;20177;-70
2022/03/20 06:17:41;;;;;;;30.73;17.70;;;8.00;99.90;;;;;;5050395;28;20297;-70
2022/03/20 06:20:08;;;;;;;34.87;18.60;;;8.60;99.90;;;;;;5051874;28;20594;-70
2022/03/20 06:22:35;;;;;;;34.97;18.63;;;8.80;99.90;;;;;;5048933;28;20665;-70
2022/03/20 06:25:08;;;;;;;27.30;17.03;;;9.80;99.90;;;;;;5057523;28;20222;-70
2022/03/20 06:27:48;;;;;;;29.80;17.87;;;9.20;99.90;;;;;;5070031;28;20194;-70
2022/03/20 06:30:14;;;;;;;31.73;18.03;;;9.70;99.70;;;;;;5071406;28;20213;-70
2022/03/20 06:32:40;;;;;;;29.57;17.73;;;9.40;99.90;;;;;;5072031;28;20223;-70
2022/03/20 06:35:08;;;;;;;30.53;17.47;;;8.40;99.90;;;;;;5076196;28;20206;-70
2022/03/20 06:37:39;;;;;;;31.30;19.20;;;8.70;99.90;;;;;;5075123;28;20309;-70
2022/03/20 06:40:05;;;;;;;28.93;18.17;;;9.10;99.90;;;;;;5071050;28;20264;-70
2022/03/20 06:42:31;;;;;;;30.80;17.70;;;9.90;99.20;;;;;;5070754;28;20329;-70
2022/03/20 06:45:01;;;;;;;31.17;18.23;;;10.40;98.00;;;;;;5075425;28;20274;-70
2022/03/20 06:47:27;;;;;;;35.20;18.17;;;9.80;97.60;;;;;;5075227;28;20659;-70
2022/03/20 06:49:54;;;;;;;31.83;19.10;;;9.70;97.50;;;;;;5069877;28;20229;-70
2022/03/20 06:52:23;;;;;;;31.40;19.20;;;9.30;98.50;;;;;;5055578;28;20667;-70
2022/03/20 06:54:51;;;;;;;29.83;17.80;;;9.50;98.00;;;;;;5056516;28;20607;-70
2022/03/20 06:57:18;;;;;;;29.33;18.30;;;8.90;98.00;;;;;;5051583;28;20305;-70
2022/03/20 06:59:44;;;;;;;32.40;18.67;;;9.60;97.80;;;;;;5050244;28;20208;-70
2022/03/20 07:02:10;;;;;;;38.23;19.07;;;8.90;97.60;;;;;;5050720;28;20631;-70
2022/03/20 07:04:35;;;;;;;33.83;18.67;;;8.00;98.70;;;;;;5049624;28;20211;-70
2022/03/20 07:07:01;;;;;;;35.17;19.00;;;8.40;98.50;;;;;;5049496;28;20204;-70
2022/03/20 07:09:27;;;;;;;32.13;18.20;;;8.70;98.30;;;;;;5050049;28;20787;-70
2022/03/20 07:11:53;;;;;;;35.07;20.00;;;8.80;97.40;;;;;;5051515;28;20164;-70
2022/03/20 07:14:19;;;;;;;33.83;19.40;;;8.70;97.70;;;;;;5051986;28;20618;-70
2022/03/20 07:16:45;;;;;;;37.97;19.40;;;9.10;97.00;;;;;;5050688;28;20742;-70
2022/03/20 07:19:11;;;;;;;31.60;19.07;;;9.10;97.30;;;;;;5049153;28;20207;-70
2022/03/20 07:21:36;;;;;;;29.53;17.73;;;9.20;96.70;;;;;;5049391;28;20182;-70
2022/03/20 07:24:02;;;;;;;30.73;17.30;;;8.80;97.00;;;;;;5049657;28;20297;-70
2022/03/20 07:29:30;;;;;;;34.63;17.87;;;8.70;97.50;;;;;;5049158;28;20219;-70
2022/03/20 07:31:58;;;;;;;33.20;18.00;;;9.50;96.30;;;;;;5044855;23;20230;-75
2022/03/20 07:34:24;;;;;;;30.97;18.93;;;10.30;95.80;;;;;;5053915;28;20553;-75
2022/03/20 07:36:50;;;;;;;30.50;18.57;;;9.40;95.60;;;;;;5050461;28;20238;-75
2022/03/20 07:39:16;;;;;;;33.27;18.90;;;10.20;95.90;;;;;;5032658;28;20176;-75
2022/03/20 07:41:42;;;;;;;31.47;18.53;;;10.80;93.80;;;;;;5050643;28;20715;-74
2022/03/20 07:44:08;;;;;;;34.93;19.87;;;10.20;93.00;;;;;;5032578;28;20215;-75
2022/03/20 07:46:33;;;;;;;41.47;23.60;;;9.90;93.80;;;;;;5032524;28;20196;-75
2022/03/20 07:49:00;;;;;;;30.13;19.03;;;10.50;93.50;;;;;;5049737;28;20249;-75
2022/03/20 07:51:26;;;;;;;33.23;18.90;;;10.50;92.60;;;;;;5048729;28;20235;-75
2022/03/20 07:53:51;;;;;;;30.67;18.83;;;9.70;93.60;;;;;;5050907;28;20203;-75
2022/03/20 07:56:22;;;;;;;35.23;19.40;;;9.80;93.00;;;;;;5050654;28;20210;-75
2022/03/20 07:58:48;;;;;;;33.53;19.40;;;9.50;93.40;;;;;;5024183;28;20196;-75
2022/03/20 08:01:13;;;;;;;35.13;19.73;;;9.10;93.60;;;;;;5050171;28;20203;-75
2022/03/20 08:03:41;;;;;;;35.07;18.37;;;9.70;93.40;;;;;;5049864;28;20571;-75
2022/03/20 08:06:07;;;;;;;34.60;19.83;;;9.80;93.10;;;;;;5050748;28;20211;-75
2022/03/20 08:08:33;;;;;;;29.87;17.63;;;10.70;92.50;;;;;;5049289;28;20211;-76
2022/03/20 08:10:58;;;;;;;29.40;17.27;;;11.00;91.80;;;;;;5032204;28;20208;-75
2022/03/20 08:13:24;;;;;;;28.60;17.63;;;10.80;92.00;;;;;;5048655;28;20207;-75
2022/03/20 08:15:49;;;;;;;31.73;18.23;;;11.70;90.60;;;;;;5049828;28;20554;-75
2022/03/20 08:18:15;;;;;;;27.60;17.70;;;10.60;90.80;;;;;;5049846;28;20180;-75
2022/03/20 08:20:42;;;;;;;31.33;18.60;;;11.30;90.60;;;;;;5049583;28;20593;-75
2022/03/20 08:23:07;;;;;;;30.83;19.00;;;10.70;90.60;;;;;;5031902;28;20257;-75
2022/03/20 08:25:33;;;;;;;32.33;18.37;;;10.70;90.80;;;;;;5031931;28;20772;-75
2022/03/20 08:27:59;;;;;;;32.17;18.97;;;10.90;91.10;;;;;;5047785;28;20724;-75
2022/03/20 08:30:24;;;;;;;33.57;17.43;;;11.10;90.10;;;;;;5049487;28;20176;-75
2022/03/20 08:32:52;;;;;;;29.47;17.40;;;11.10;90.20;;;;;;5050401;28;20199;-75
2022/03/20 08:35:19;;;;;;;30.90;17.63;;;10.80;90.50;;;;;;5049917;28;20204;-75
2022/03/20 08:37:45;;;;;;;28.30;17.53;;;11.60;90.00;;;;;;5048014;28;20256;-75
2022/03/20 08:40:15;;;;;;;29.40;18.10;;;10.50;90.40;;;;;;5030984;28;20211;-76
2022/03/20 08:42:45;;;;;;;31.33;18.30;;;9.80;91.10;;;;;;5053208;28;20223;-76
2022/03/20 08:45:11;;;;;;;31.03;18.13;;;9.80;91.50;;;;;;5053812;28;20290;-75
2022/03/20 08:47:38;;;;;;;29.67;18.20;;;9.70;91.70;;;;;;5053610;28;20234;-75
2022/03/20 08:50:04;;;;;;;29.63;18.10;;;10.20;91.50;;;;;;5046034;28;20211;-75
2022/03/20 08:52:30;;;;;;;33.70;18.77;;;11.40;90.40;;;;;;5035675;28;20534;-75
2022/03/20 08:54:56;;;;;;;33.03;19.10;;;11.00;90.40;;;;;;5052417;28;20208;-75
2022/03/20 08:57:25;;;;;;;29.90;18.47;;;10.70;90.70;;;;;;5053129;28;20625;-76
2022/03/20 08:59:51;;;;;;;30.90;18.77;;;10.60;90.80;;;;;;5035363;28;20164;-75
2022/03/20 09:02:17;;;;;;;31.37;18.13;;;10.50;90.90;;;;;;5035546;28;20589;-75
2022/03/20 09:04:42;;;;;;;26.43;17.40;;;10.40;91.20;;;;;;5035396;28;20217;-75
2022/03/20 09:07:08;;;;;;;33.83;18.67;;;10.20;91.30;;;;;;5035672;28;20273;-75
2022/03/20 09:09:33;;;;;;;31.53;17.47;;;10.00;91.80;;;;;;5034993;28;20251;-75
2022/03/20 09:12:01;;;;;;;29.60;18.30;;;10.10;91.60;;;;;;5036040;28;20200;-75
2022/03/20 09:14:26;;;;;;;31.40;19.47;;;10.10;92.00;;;;;;5035213;28;20222;-75
2022/03/20 09:19:37;;;;;;;34.97;18.73;;;10.10;91.90;;;;;;5061848;28;20242;-75
2022/03/20 09:22:06;;;;;;;28.17;17.33;;;10.50;91.30;;;;;;5046359;28;20210;-75
2022/03/20 09:24:36;;;;;;;30.13;17.33;;;10.10;91.40;;;;;;5049111;28;20191;-75
2022/03/20 09:27:02;;;;;;;31.17;18.63;;;10.10;91.40;;;;;;5069956;28;20168;-75
2022/03/20 09:29:28;;;;;;;32.90;18.13;;;9.90;91.90;;;;;;5067583;28;20230;-76
2022/03/20 09:31:53;;;;;;;27.50;18.17;;;9.70;92.00;;;;;;5049327;28;20219;-75
2022/03/20 09:34:19;;;;;;;30.20;18.47;;;9.60;92.40;;;;;;5034486;28;20261;-75
2022/03/20 09:36:44;;;;;;;29.70;18.83;;;10.00;92.00;;;;;;5034334;28;20715;-75
2022/03/20 09:39:10;;;;;;;34.20;18.90;;;10.10;92.00;;;;;;5052305;28;20241;-75
2022/03/20 09:41:41;;;;;;;30.97;17.40;;;9.90;91.80;;;;;;5052034;28;20235;-75
2022/03/20 09:44:08;;;;;;;32.60;18.47;;;10.50;91.80;;;;;;5052245;28;20207;-75
2022/03/20 09:46:34;;;;;;;31.53;18.77;;;10.30;91.30;;;;;;5052291;28;20207;-76
2022/03/20 09:49:03;;;;;;;32.43;18.90;;;9.90;91.60;;;;;;5050373;28;20215;-75
2022/03/20 09:51:28;;;;;;;29.43;17.53;;;9.80;91.70;;;;;;5033071;28;20301;-75
2022/03/20 09:53:54;;;;;;;31.10;18.57;;;9.90;91.70;;;;;;5051906;28;20160;-75
2022/03/20 09:56:19;;;;;;;31.33;17.90;;;10.10;91.50;;;;;;5051819;28;20211;-75
2022/03/20 09:58:45;;;;;;;27.60;16.97;;;10.10;91.40;;;;;;5033202;28;20204;-75
2022/03/20 10:01:11;;;;;;;29.93;17.57;;;10.40;91.30;;;;;;5033811;28;20593;-75
2022/03/20 10:03:37;;;;;;;36.00;17.83;;;10.50;91.00;;;;;;5051701;28;20215;-75
2022/03/20 10:06:17;;;;;;;27.97;17.53;;;10.60;90.90;;;;;;5052214;28;20207;-75
2022/03/20 10:08:55;;;;;;;28.33;17.27;;;10.60;90.80;;;;;;5051007;28;20215;-75
2022/03/20 10:11:21;;;;;;;27.00;16.37;;;10.50;90.70;;;;;;5051530;28;20199;-75
2022/03/20 10:14:16;;;;;;;28.07;17.53;;;10.80;90.70;;;;;;5051771;28;20204;-76
2022/03/20 10:16:50;;;;;;;27.03;17.00;;;10.90;90.10;;;;;;5051505;28;20650;-74
2022/03/20 10:19:22;;;;;;;27.43;16.43;;;10.90;89.80;;;;;;5066074;28;20218;-75
2022/03/20 10:21:50;;;;;;;29.73;16.93;;;10.90;89.90;;;;;;5066403;28;20218;-75
2022/03/20 10:24:18;;;;;;;30.43;17.83;;;11.10;89.20;;;;;;5070218;28;20255;-76
2022/03/20 10:26:44;;;;;;;24.63;15.77;;;11.20;89.40;;;;;;5055042;28;20200;-75
2022/03/20 10:29:15;;;;;;;25.47;15.60;;;11.00;88.10;;;;;;5068867;28;20210;-75
2022/03/20 10:31:51;;;;;;;25.37;16.07;;;11.20;88.40;;;;;;5063691;28;20522;-75
2022/03/20 10:34:18;;;;;;;28.23;15.70;;;11.40;87.00;;;;;;5053523;28;20207;-76
2022/03/20 10:36:44;;;;;;;23.10;15.37;;;11.50;85.40;;;;;;5049884;28;20322;-76
2022/03/20 10:39:16;;;;;;;26.57;14.30;;;11.20;85.20;;;;;;5051150;28;20254;-75
2022/03/20 10:41:45;;;;;;;29.30;16.03;;;11.10;85.80;;;;;;5050910;28;20223;-75
2022/03/20 10:44:19;;;;;;;28.37;14.97;;;11.00;85.40;;;;;;5049859;28;20215;-75
2022/03/20 10:46:59;;;;;;;40.03;23.57;;;10.90;86.00;;;;;;5051098;28;20708;-75
2022/03/20 10:49:25;;;;;;;23.00;14.53;;;10.90;86.90;;;;;;5050411;28;20687;-75
2022/03/20 10:52:08;;;;;;;28.73;16.63;;;11.20;85.00;;;;;;5051289;28;20237;-75
2022/03/20 10:54:40;;;;;;;25.77;14.87;;;11.00;85.20;;;;;;5049558;28;20183;-75
2022/03/20 10:57:06;;;;;;;23.43;15.50;;;10.90;85.20;;;;;;5033689;28;20175;-74
2022/03/20 10:59:32;;;;;;;24.27;14.87;;;11.20;85.00;;;;;;5050136;28;20204;-77
2022/03/20 11:01:59;;;;;;;24.20;14.37;;;11.30;84.50;;;;;;5050839;28;20231;-75
2022/03/20 11:04:24;;;;;;;24.57;15.03;;;11.50;84.50;;;;;;5050046;28;20207;-74
2022/03/20 11:06:54;;;;;;;27.17;14.43;;;11.50;84.20;;;;;;5049551;28;20226;-76
2022/03/20 11:09:20;;;;;;;22.80;13.33;;;11.60;82.30;;;;;;5050276;28;20176;-76
2022/03/20 11:11:48;;;;;;;24.03;12.37;;;11.50;80.50;;;;;;5049859;28;20198;-77
2022/03/20 11:14:19;;;;;;;24.30;13.30;;;11.50;80.60;;;;;;5032879;28;20218;-75
2022/03/20 11:17:04;;;;;;;19.57;11.90;;;11.70;80.40;;;;;;5050935;28;20343;-75
2022/03/20 11:19:31;;;;;;;20.60;12.23;;;11.60;79.10;;;;;;5048675;28;20207;-75
2022/03/20 11:22:06;;;;;;;17.17;11.97;;;11.50;78.30;;;;;;5032959;28;20207;-75
2022/03/20 11:24:32;;;;;;;18.00;12.03;;;11.50;78.00;;;;;;5032818;28;20710;-75
2022/03/20 11:27:01;;;;;;;18.90;12.30;;;11.80;78.30;;;;;;5052387;28;20180;-75
2022/03/20 11:29:30;;;;;;;19.10;12.67;;;11.90;78.10;;;;;;5033079;28;20203;-76
2022/03/20 11:31:58;;;;;;;28.43;12.73;;;11.60;78.40;;;;;;5037666;28;20634;-75
2022/03/20 11:34:25;;;;;;;21.53;12.63;;;11.40;78.60;;;;;;5052586;28;20683;-75
2022/03/20 11:37:09;;;;;;;24.27;13.40;;;11.30;79.40;;;;;;5050857;28;20298;-75
2022/03/20 11:39:37;;;;;;;18.83;12.60;;;11.30;80.30;;;;;;5049662;28;20188;-75
2022/03/20 11:42:27;;;;;;;20.23;13.47;;;11.60;80.00;;;;;;5050956;28;20194;-74
2022/03/20 11:45:09;;;;;;;21.77;13.93;;;11.70;80.00;;;;;;5033261;28;20647;-75
2022/03/20 11:47:36;;;;;;;19.53;12.77;;;11.70;79.00;;;;;;5050853;28;20211;-74
2022/03/20 11:50:15;;;;;;;22.80;13.57;;;11.70;79.50;;;;;;5032183;28;20203;-74
2022/03/20 11:52:58;;;;;;;24.20;14.03;;;11.70;79.20;;;;;;5050064;28;20208;-75
2022/03/20 11:55:41;;;;;;;22.97;13.80;;;11.60;78.80;;;;;;5050579;28;20294;-76
2022/03/20 11:58:11;;;;;;;18.07;12.07;;;11.50;78.80;;;;;;5049790;28;20212;-76
2022/03/20 12:00:40;;;;;;;22.93;14.23;;;11.80;79.30;;;;;;5050338;28;20225;-75
2022/03/20 12:03:13;;;;;;;22.27;13.97;;;11.80;79.00;;;;;;5049479;28;20649;-75
2022/03/20 12:06:08;;;;;;;24.33;13.23;;;12.00;79.50;;;;;;5049891;28;20704;-75
2022/03/20 12:08:53;;;;;;;21.43;14.43;;;12.00;79.40;;;;;;5026442;28;20249;-75
2022/03/20 12:11:47;;;;;;;23.10;14.07;;;12.20;79.20;;;;;;5032442;28;20204;-75
2022/03/20 12:14:32;;;;;;;25.87;14.33;;;11.90;80.90;;;;;;5032057;28;20664;-75
2022/03/20 12:16:59;;;;;;;21.87;14.13;;;12.00;80.20;;;;;;5052469;28;20211;-76
2022/03/20 12:19:48;;;;;;;22.33;13.67;;;12.20;79.70;;;;;;5051583;28;20636;-75
2022/03/20 12:22:21;;;;;;;21.67;13.57;;;12.00;79.60;;;;;;5053743;28;20210;-76
2022/03/20 12:24:55;;;;;;;21.50;13.93;;;12.10;79.50;;;;;;5053755;28;20621;-76
2022/03/20 12:27:23;;;;;;;20.63;13.83;;;12.10;79.20;;;;;;5053702;28;20211;-75
2022/03/20 12:30:04;;;;;;;26.60;13.97;;;12.20;78.00;;;;;;5027748;28;20180;-75
2022/03/20 12:32:47;;;;;;;23.20;14.10;;;12.20;78.20;;;;;;5053260;28;20215;-74
2022/03/20 12:35:45;;;;;;;22.47;13.70;;;12.10;78.20;;;;;;5053780;28;20237;-75
2022/03/20 12:38:40;;;;;;;24.83;13.23;;;12.10;78.40;;;;;;5034918;28;20212;-75
2022/03/20 12:41:14;;;;;;;21.50;13.50;;;12.00;77.60;;;;;;5053374;28;20203;-74
2022/03/20 12:43:43;;;;;;;24.97;13.20;;;12.10;76.70;;;;;;5051862;28;20233;-75
2022/03/20 12:46:10;;;;;;;24.07;13.83;;;12.40;77.20;;;;;;5051975;28;20212;-74
2022/03/20 12:48:36;;;;;;;23.47;13.73;;;12.50;77.20;;;;;;5051154;28;20659;-75
2022/03/20 12:51:09;;;;;;;23.60;14.07;;;12.30;77.20;;;;;;5053449;28;20672;-74
2022/03/20 12:53:44;;;;;;;21.47;14.03;;;12.30;77.70;;;;;;5051992;28;20561;-75
2022/03/20 12:56:14;;;;;;;23.07;13.10;;;12.40;76.90;;;;;;5051854;28;20206;-74
2022/03/20 12:58:40;;;;;;;23.57;13.27;;;12.20;76.50;;;;;;5051178;28;20222;-75
2022/03/20 13:01:09;;;;;;;20.67;12.83;;;12.40;76.30;;;;;;5053044;28;20207;-75
2022/03/20 13:03:35;;;;;;;17.27;11.27;;;12.60;75.00;;;;;;5052964;28;20180;-74